createdAt,value
2018-04-22T00:01:13.875Z,71.48
2018-04-22T00:03:41.280Z,71.53
2018-04-22T00:06:08.724Z,71.88
2018-04-22T00:08:36.111Z,71.98
2018-04-22T00:11:03.503Z,71.91
2018-04-22T00:13:30.887Z,71.92
2018-04-22T00:15:58.620Z,71.97
2018-04-22T00:18:26.012Z,72.26
2018-04-22T00:20:53.399Z,72.15
2018-04-22T00:23:20.791Z,72.08
2018-04-22T00:25:48.174Z,72.12
2018-04-22T00:28:15.571Z,72.00
2018-04-22T00:30:42.951Z,72.10
2018-04-22T00:33:10.339Z,72.07
2018-04-22T00:35:37.743Z,71.99
2018-04-22T00:38:05.115Z,72.13
2018-04-22T00:40:32.518Z,72.38
2018-04-22T00:42:59.910Z,72.49
2018-04-22T00:45:27.300Z,72.79
2018-04-22T00:47:54.690Z,73.10
2018-04-22T00:50:22.079Z,73.18
2018-04-22T00:52:49.475Z,73.37
2018-04-22T00:55:16.863Z,73.61
2018-04-22T00:57:44.247Z,73.65
2018-04-22T01:00:11.643Z,73.62
2018-04-22T01:02:39.026Z,73.36
2018-04-22T01:05:06.752Z,73.16
2018-04-22T01:07:34.143Z,73.07
2018-04-22T01:10:01.535Z,72.69
2018-04-22T01:12:28.936Z,73.04
2018-04-22T01:14:56.327Z,73.49
2018-04-22T01:17:23.718Z,73.77
2018-04-22T01:19:51.112Z,73.88
2018-04-22T01:22:18.506Z,73.65
2018-04-22T01:24:45.894Z,73.90
2018-04-22T01:27:13.283Z,74.09
2018-04-22T01:29:40.680Z,74.32
2018-04-22T01:32:08.066Z,74.52
2018-04-22T01:34:35.486Z,74.68
2018-04-22T01:37:02.879Z,74.75
2018-04-22T01:39:30.271Z,74.87
2018-04-22T01:41:58.490Z,74.97
2018-04-22T01:44:25.879Z,75.01
2018-04-22T01:46:53.263Z,75.06
2018-04-22T01:49:20.654Z,75.11
2018-04-22T01:51:48.049Z,75.17
2018-04-22T01:54:15.443Z,75.47
2018-04-22T01:56:42.824Z,75.57
2018-04-22T01:59:10.215Z,75.65
2018-04-22T02:01:37.611Z,76.20
2018-04-22T02:04:04.999Z,75.75
2018-04-22T02:06:32.418Z,75.90
2018-04-22T02:08:59.798Z,76.02
2018-04-22T02:11:27.279Z,75.97
2018-04-22T02:13:54.673Z,76.00
2018-04-22T02:16:22.055Z,76.37
2018-04-22T02:18:49.454Z,76.45
2018-04-22T02:21:16.844Z,76.47
2018-04-22T02:23:44.240Z,76.59
2018-04-22T02:26:11.635Z,76.46
2018-04-22T02:28:39.029Z,76.71
2018-04-22T02:31:06.527Z,76.84
2018-04-22T02:33:33.914Z,76.72
2018-04-22T02:36:01.295Z,76.31
2018-04-22T02:38:28.695Z,76.42
2018-04-22T02:40:56.087Z,76.55
2018-04-22T02:43:23.501Z,76.81
2018-04-22T02:45:50.896Z,77.08
2018-04-22T02:48:18.283Z,77.27
2018-04-22T02:50:45.685Z,77.35
2018-04-22T02:53:13.106Z,77.38
2018-04-22T02:55:40.496Z,77.47
2018-04-22T02:58:07.894Z,77.42
2018-04-22T03:00:35.275Z,77.56
2018-04-22T03:03:02.660Z,77.74
2018-04-22T03:05:30.046Z,78.16
2018-04-22T03:07:57.455Z,78.32
2018-04-22T03:10:24.843Z,78.42
2018-04-22T03:12:52.239Z,78.49
2018-04-22T03:15:19.630Z,78.89
2018-04-22T03:17:47.020Z,79.01
2018-04-22T03:20:14.404Z,79.09
2018-04-22T03:22:41.794Z,79.18
2018-04-22T03:25:09.178Z,79.45
2018-04-22T03:27:36.567Z,79.50
2018-04-22T03:30:03.970Z,79.61
2018-04-22T03:32:31.355Z,79.59
2018-04-22T03:34:58.745Z,79.37
2018-04-22T03:37:26.137Z,79.37
2018-04-22T03:39:53.527Z,79.60
2018-04-22T03:42:20.912Z,79.56
2018-04-22T03:44:48.307Z,79.74
2018-04-22T03:47:15.794Z,79.68
2018-04-22T03:49:43.186Z,79.21
2018-04-22T03:52:10.579Z,78.97
2018-04-22T03:54:37.967Z,78.81
2018-04-22T03:57:05.355Z,78.68
2018-04-22T03:59:32.756Z,78.46
2018-04-22T04:02:00.152Z,78.21
2018-04-22T04:04:27.536Z,78.22
2018-04-22T04:06:55.525Z,78.12
2018-04-22T04:09:22.915Z,77.97
2018-04-22T04:11:50.311Z,77.76
2018-04-22T04:14:17.719Z,77.62
2018-04-22T04:16:45.099Z,77.64
2018-04-22T04:19:24.379Z,77.67
2018-04-22T04:22:03.535Z,77.81
2018-04-22T04:24:42.659Z,77.93
2018-04-22T04:30:23.735Z,77.96
2018-04-22T04:32:51.126Z,77.51
2018-04-22T04:35:18.854Z,78.15
2018-04-22T04:37:46.342Z,77.89
2018-04-22T04:40:13.714Z,77.65
2018-04-22T04:42:41.102Z,77.25
2018-04-22T04:45:08.494Z,77.32
2018-04-22T04:47:35.896Z,76.91
2018-04-22T04:50:03.288Z,76.85
2018-04-22T04:52:30.686Z,76.46
2018-04-22T04:54:58.078Z,76.28
2018-04-22T04:57:25.488Z,76.16
2018-04-22T04:59:52.899Z,75.82
2018-04-22T05:02:20.282Z,75.85
2018-04-22T05:04:47.674Z,75.98
2018-04-22T05:07:15.069Z,75.54
2018-04-22T05:09:42.471Z,75.76
2018-04-22T05:12:09.858Z,75.54
2018-04-22T05:14:37.336Z,75.49
2018-04-22T05:17:04.731Z,75.29
2018-04-22T05:19:32.124Z,75.42
2018-04-22T05:21:59.516Z,75.39
2018-04-22T05:24:27.188Z,75.40
2018-04-22T05:26:54.576Z,75.34
2018-04-22T05:29:22.017Z,75.31
2018-04-22T05:31:49.391Z,75.41
2018-04-22T05:34:16.787Z,74.90
2018-04-22T05:36:44.279Z,74.95
2018-04-22T05:39:11.896Z,74.76
2018-04-22T05:41:39.284Z,74.90
2018-04-22T05:44:06.679Z,74.93
2018-04-22T05:46:34.090Z,74.94
2018-04-22T05:49:01.517Z,75.00
2018-04-22T05:51:28.900Z,74.83
2018-04-22T05:53:56.298Z,74.96
2018-04-22T05:56:23.683Z,74.85
2018-04-22T05:58:51.095Z,74.75
2018-04-22T06:01:18.479Z,75.04
2018-04-22T06:03:45.872Z,75.07
2018-04-22T06:06:13.262Z,73.85
2018-04-22T06:08:40.732Z,74.43
2018-04-22T06:11:08.467Z,73.78
2018-04-22T06:13:35.856Z,73.89
2018-04-22T06:16:03.239Z,74.07
2018-04-22T06:18:30.662Z,73.26
2018-04-22T06:20:58.024Z,73.33
2018-04-22T06:23:25.751Z,73.06
2018-04-22T06:25:53.134Z,73.17
2018-04-22T06:28:20.571Z,73.40
2018-04-22T06:30:47.907Z,71.67
2018-04-22T06:33:15.301Z,72.92
2018-04-22T06:35:42.711Z,71.58
2018-04-22T06:38:10.115Z,71.99
2018-04-22T06:40:37.495Z,70.18
2018-04-22T06:43:04.890Z,70.80
2018-04-22T06:45:32.283Z,70.55
2018-04-22T06:47:59.724Z,70.40
2018-04-22T06:50:27.174Z,69.70
2018-04-22T06:52:54.562Z,69.88
2018-04-22T06:55:21.950Z,68.96
2018-04-22T06:57:49.339Z,68.91
2018-04-22T07:00:16.730Z,67.90
2018-04-22T07:02:44.115Z,67.41
2018-04-22T07:05:11.501Z,69.54
2018-04-22T07:07:38.899Z,68.33
2018-04-22T07:10:06.288Z,67.41
2018-04-22T07:12:33.751Z,68.01
2018-04-22T07:15:01.140Z,67.15
2018-04-22T07:17:28.526Z,66.49
2018-04-22T07:19:55.979Z,66.99
2018-04-22T07:22:23.375Z,67.00
2018-04-22T07:24:50.756Z,67.54
2018-04-22T07:27:18.135Z,66.08
2018-04-22T07:29:45.524Z,65.02
2018-04-22T07:32:12.945Z,66.47
2018-04-22T07:34:40.328Z,66.94
2018-04-22T07:37:07.719Z,67.06
2018-04-22T07:39:35.112Z,66.73
2018-04-22T07:42:02.491Z,67.65
2018-04-22T07:44:29.884Z,64.87
2018-04-22T07:46:57.266Z,66.68
2018-04-22T07:49:24.663Z,66.24
2018-04-22T07:51:52.072Z,65.44
2018-04-22T07:54:19.629Z,64.08
2018-04-22T07:56:47.075Z,64.58
2018-04-22T07:59:14.448Z,63.80
2018-04-22T08:01:41.884Z,65.69
2018-04-22T08:04:09.454Z,63.35
2018-04-22T08:06:36.871Z,64.25
2018-04-22T08:09:04.279Z,61.99
2018-04-22T08:11:31.658Z,61.92
2018-04-22T08:13:59.490Z,64.71
2018-04-22T08:16:26.983Z,60.81
2018-04-22T08:18:54.445Z,61.92
2018-04-22T08:21:21.754Z,62.58
2018-04-22T08:23:49.176Z,63.49
2018-04-22T08:26:16.562Z,63.26
2018-04-22T08:28:43.963Z,60.22
2018-04-22T08:31:11.417Z,61.95
2018-04-22T08:33:38.811Z,60.72
2018-04-22T08:36:06.202Z,61.01
2018-04-22T08:38:33.871Z,59.72
2018-04-22T08:41:01.258Z,59.92
2018-04-22T08:43:28.662Z,60.17
2018-04-22T08:45:56.075Z,59.76
2018-04-22T08:48:23.450Z,61.41
2018-04-22T08:50:50.853Z,60.41
2018-04-22T08:53:18.240Z,59.22
2018-04-22T08:55:45.623Z,57.12
2018-04-22T08:58:13.033Z,57.85
2018-04-22T09:00:40.427Z,58.38
2018-04-22T09:03:07.835Z,57.28
2018-04-22T09:05:35.219Z,56.12
2018-04-22T09:08:02.610Z,53.45
2018-04-22T09:10:29.995Z,52.54
2018-04-22T09:12:57.374Z,49.92
2018-04-22T09:15:24.770Z,53.82
2018-04-22T09:17:52.169Z,53.03
2018-04-22T09:20:19.538Z,50.84
2018-04-22T09:22:46.923Z,50.83
2018-04-22T09:25:14.321Z,51.33
2018-04-22T09:27:41.707Z,51.95
2018-04-22T09:30:09.086Z,49.78
2018-04-22T09:32:36.475Z,49.41
2018-04-22T09:35:03.863Z,49.44
2018-04-22T09:37:31.259Z,47.43
2018-04-22T09:39:58.639Z,44.91
2018-04-22T09:42:26.043Z,44.57
2018-04-22T09:44:53.444Z,43.47
2018-04-22T09:47:20.819Z,42.69
2018-04-22T09:49:48.222Z,44.26
2018-04-22T09:52:15.603Z,39.08
2018-04-22T09:54:43.002Z,41.34
2018-04-22T09:57:10.478Z,37.66
2018-04-22T09:59:37.862Z,40.13
2018-04-22T10:02:05.250Z,38.06
2018-04-22T10:04:38.302Z,38.77
2018-04-22T10:07:05.705Z,40.19
2018-04-22T10:09:33.084Z,44.98
2018-04-22T10:12:00.487Z,35.38
2018-04-22T10:14:27.874Z,37.42
2018-04-22T10:16:55.258Z,37.07
2018-04-22T10:19:22.759Z,35.90
2018-04-22T10:21:50.149Z,35.89
2018-04-22T10:24:17.546Z,35.82
2018-04-22T10:26:44.931Z,35.28
2018-04-22T10:29:12.319Z,35.41
2018-04-22T10:31:39.723Z,35.90
2018-04-22T10:34:07.103Z,34.67
2018-04-22T10:36:34.496Z,31.83
2018-04-22T10:39:01.883Z,34.21
2018-04-22T10:41:29.315Z,36.21
2018-04-22T10:43:56.799Z,35.57
2018-04-22T10:46:24.203Z,34.03
2018-04-22T10:48:51.597Z,32.57
2018-04-22T10:51:19.085Z,33.57
2018-04-22T10:53:46.471Z,33.24
2018-04-22T10:56:13.864Z,33.39
2018-04-22T10:58:41.246Z,31.85
2018-04-22T11:01:08.646Z,30.68
2018-04-22T11:03:36.023Z,30.96
2018-04-22T11:06:03.407Z,33.71
2018-04-22T11:08:30.800Z,29.24
2018-04-22T11:10:58.183Z,30.99
2018-04-22T11:13:25.924Z,31.47
2018-04-22T11:15:53.331Z,30.97
2018-04-22T11:18:20.715Z,31.59
2018-04-22T11:20:48.134Z,31.34
2018-04-22T11:23:15.529Z,32.66
2018-04-22T11:25:42.914Z,30.55
2018-04-22T11:28:10.294Z,32.01
2018-04-22T11:30:37.679Z,30.77
2018-04-22T11:33:05.082Z,31.76
2018-04-22T11:35:32.460Z,30.20
2018-04-22T11:37:59.863Z,29.64
2018-04-22T11:40:27.258Z,28.90
2018-04-22T11:42:54.646Z,30.20
2018-04-22T11:45:22.071Z,31.07
2018-04-22T11:47:49.480Z,27.87
2018-04-22T11:50:17.378Z,29.18
2018-04-22T11:52:44.763Z,31.95
2018-04-22T11:55:12.143Z,29.86
2018-04-22T11:57:39.538Z,33.17
2018-04-22T12:00:06.940Z,33.22
2018-04-22T12:02:34.324Z,34.04
2018-04-22T12:05:01.722Z,30.89
2018-04-22T12:07:29.116Z,29.59
2018-04-22T12:09:56.495Z,31.16
2018-04-22T12:12:23.886Z,32.73
2018-04-22T12:14:51.287Z,28.20
2018-04-22T12:17:18.662Z,31.02
2018-04-22T12:19:46.144Z,30.42
2018-04-22T12:22:13.523Z,33.43
2018-04-22T12:24:40.993Z,33.43
2018-04-22T12:27:08.383Z,32.82
2018-04-22T12:29:35.770Z,30.52
2018-04-22T12:32:03.567Z,31.39
2018-04-22T12:34:31.131Z,29.38
2018-04-22T12:36:58.517Z,33.41
2018-04-22T12:39:25.906Z,30.91
2018-04-22T12:41:53.302Z,32.66
2018-04-22T12:44:20.695Z,34.09
2018-04-22T12:46:48.086Z,33.84
2018-04-22T12:49:15.475Z,36.91
2018-04-22T12:51:42.866Z,32.75
2018-04-22T12:54:10.250Z,38.25
2018-04-22T12:56:37.671Z,37.97
2018-04-22T12:59:05.047Z,38.76
2018-04-22T13:01:32.444Z,37.44
2018-04-22T13:03:59.819Z,37.98
2018-04-22T13:06:27.203Z,38.89
2018-04-22T13:08:54.683Z,39.60
2018-04-22T13:11:22.115Z,39.31
2018-04-22T13:13:49.494Z,42.61
2018-04-22T13:16:16.890Z,43.83
2018-04-22T13:18:44.773Z,43.30
2018-04-22T13:21:12.162Z,45.88
2018-04-22T13:23:39.721Z,51.61
2018-04-22T13:26:07.148Z,56.79
2018-04-22T13:28:34.538Z,64.97
2018-04-22T13:31:01.927Z,69.60
2018-04-22T13:33:29.323Z,76.08
2018-04-22T13:35:56.814Z,81.14
2018-04-22T13:38:24.203Z,85.05
2018-04-22T13:40:51.660Z,87.43
2018-04-22T13:43:19.051Z,79.27
2018-04-22T13:45:46.453Z,83.99
2018-04-22T13:48:13.829Z,88.84
2018-04-22T13:50:41.221Z,84.95
2018-04-22T13:53:08.631Z,86.82
2018-04-22T13:55:36.030Z,91.88
2018-04-22T13:58:03.737Z,93.16
2018-04-22T14:00:31.121Z,89.06
2018-04-22T14:02:58.502Z,84.72
2018-04-22T14:05:25.886Z,85.93
2018-04-22T14:07:53.271Z,82.18
2018-04-22T14:10:20.719Z,81.14
2018-04-22T14:12:48.107Z,84.80
2018-04-22T14:15:15.551Z,80.07
2018-04-22T14:17:43.040Z,82.98
2018-04-22T14:20:10.511Z,84.14
2018-04-22T14:22:38.025Z,83.97
2018-04-22T14:25:05.476Z,84.95
2018-04-22T14:27:32.803Z,84.36
2018-04-22T14:30:00.228Z,84.29
2018-04-22T14:32:27.617Z,83.13
2018-04-22T14:34:55.014Z,83.29
2018-04-22T14:37:22.398Z,85.04
2018-04-22T14:39:49.797Z,87.38
2018-04-22T14:42:17.192Z,86.51
2018-04-22T14:44:56.330Z,87.64
2018-04-22T14:47:23.718Z,85.76
2018-04-22T14:49:51.155Z,87.01
2018-04-22T14:52:18.571Z,84.43
2018-04-22T14:54:46.000Z,83.70
2018-04-22T14:57:13.379Z,83.06
2018-04-22T14:59:40.775Z,87.18
2018-04-22T15:02:08.161Z,95.39
2018-04-22T15:04:35.570Z,95.08
2018-04-22T15:07:02.949Z,94.52
2018-04-22T15:09:30.330Z,93.45
2018-04-22T15:11:57.720Z,91.37
2018-04-22T15:14:25.146Z,90.19
2018-04-22T15:16:52.533Z,87.60
2018-04-22T15:19:19.923Z,89.33
2018-04-22T15:21:47.303Z,91.29
2018-04-22T15:24:14.699Z,91.88
2018-04-22T15:26:42.079Z,93.56
2018-04-22T15:29:09.478Z,93.75
2018-04-22T15:31:36.855Z,93.58
2018-04-22T15:34:04.251Z,93.19
2018-04-22T15:36:31.642Z,93.28
2018-04-22T15:38:59.079Z,93.51
2018-04-22T15:41:26.474Z,93.01
2018-04-22T15:43:53.866Z,93.75
2018-04-22T15:46:21.251Z,94.65
2018-04-22T15:48:48.679Z,96.81
2018-04-22T15:51:16.063Z,98.22
2018-04-22T15:53:43.459Z,99.55
2018-04-22T15:56:10.844Z,97.94
2018-04-22T15:58:38.226Z,95.25
2018-04-22T16:01:05.717Z,89.82
2018-04-22T16:03:33.095Z,94.14
2018-04-22T16:06:00.516Z,91.46
2018-04-22T16:08:27.907Z,93.58
2018-04-22T16:10:55.679Z,94.20
2018-04-22T16:13:23.054Z,93.83
2018-04-22T16:15:50.492Z,93.95
2018-04-22T16:18:17.884Z,93.65
2018-04-22T16:20:45.266Z,95.11
2018-04-22T16:23:12.658Z,92.43
2018-04-22T16:25:40.068Z,93.76
2018-04-22T16:28:07.478Z,95.11
2018-04-22T16:30:34.890Z,96.19
2018-04-22T16:33:02.270Z,95.41
2018-04-22T16:35:29.837Z,95.57
2018-04-22T16:37:57.173Z,95.42
2018-04-22T16:40:24.563Z,95.45
2018-04-22T16:42:51.974Z,95.61
2018-04-22T16:45:19.594Z,96.25
2018-04-22T16:47:46.981Z,95.20
2018-04-22T16:50:14.371Z,94.94
2018-04-22T16:52:41.787Z,93.17
2018-04-22T16:55:09.170Z,94.03
2018-04-22T16:57:36.559Z,89.20
2018-04-22T17:00:03.991Z,90.92
2018-04-22T17:02:31.635Z,89.44
2018-04-22T17:04:59.027Z,92.24
2018-04-22T17:07:26.411Z,94.40
2018-04-22T17:09:53.798Z,96.15
2018-04-22T17:12:21.183Z,96.67
2018-04-22T17:14:48.588Z,96.98
2018-04-22T17:17:15.983Z,97.08
2018-04-22T17:19:43.396Z,97.54
2018-04-22T17:22:10.837Z,97.62
2018-04-22T17:24:38.230Z,97.56
2018-04-22T17:27:05.628Z,97.57
2018-04-22T17:29:33.015Z,97.71
2018-04-22T17:32:00.416Z,97.48
2018-04-22T17:34:27.797Z,97.32
2018-04-22T17:36:55.186Z,97.45
2018-04-22T17:39:22.567Z,97.37
2018-04-22T17:41:49.963Z,97.15
2018-04-22T17:44:17.355Z,97.46
2018-04-22T17:46:44.739Z,98.17
2018-04-22T17:49:12.138Z,98.22
2018-04-22T17:51:39.522Z,97.92
2018-04-22T17:54:06.971Z,97.35
2018-04-22T17:56:34.415Z,97.53
2018-04-22T17:59:01.791Z,96.83
2018-04-22T18:01:29.179Z,97.27
2018-04-22T18:03:56.833Z,97.30
2018-04-22T18:06:24.216Z,97.36
2018-04-22T18:08:51.591Z,97.47
2018-04-22T18:11:19.003Z,97.23
2018-04-22T18:13:46.384Z,95.54
2018-04-22T18:16:13.780Z,95.46
2018-04-22T18:18:41.191Z,96.56
2018-04-22T18:21:08.591Z,96.45
2018-04-22T18:23:35.981Z,96.96
2018-04-22T18:26:03.391Z,97.52
2018-04-22T18:28:30.771Z,98.17
2018-04-22T18:30:58.155Z,98.72
2018-04-22T18:33:25.547Z,98.30
2018-04-22T18:35:52.931Z,98.38
2018-04-22T18:38:20.359Z,98.43
2018-04-22T18:40:47.770Z,98.42
2018-04-22T18:43:15.174Z,98.38
2018-04-22T18:45:42.567Z,98.61
2018-04-22T18:48:09.957Z,99.01
2018-04-22T18:50:37.338Z,99.16
2018-04-22T18:53:04.723Z,99.04
2018-04-22T18:55:32.111Z,99.12
2018-04-22T18:57:59.506Z,99.01
2018-04-22T19:00:26.926Z,99.07
2018-04-22T19:02:54.330Z,99.17
2018-04-22T19:05:21.723Z,99.24
2018-04-22T19:07:49.113Z,99.13
2018-04-22T19:10:16.538Z,98.96
2018-04-22T19:12:43.983Z,98.96
2018-04-22T19:15:11.607Z,99.00
2018-04-22T19:17:38.996Z,99.08
2018-04-22T19:20:06.642Z,99.16
2018-04-22T19:22:34.012Z,99.26
2018-04-22T19:25:01.399Z,99.30
2018-04-22T19:27:28.779Z,99.46
2018-04-22T19:29:56.199Z,99.60
2018-04-22T19:32:23.650Z,99.70
2018-04-22T19:34:51.099Z,99.53
2018-04-22T19:37:18.518Z,99.50
2018-04-22T19:39:45.986Z,99.37
2018-04-22T19:42:13.359Z,99.31
2018-04-22T19:44:40.840Z,99.30
2018-04-22T19:47:08.210Z,99.33
2018-04-22T19:49:35.603Z,99.42
2018-04-22T19:52:02.999Z,99.39
2018-04-22T19:54:30.388Z,99.31
2018-04-22T19:56:57.785Z,99.20
2018-04-22T19:59:25.159Z,99.35
2018-04-22T20:01:52.542Z,99.44
2018-04-22T20:04:19.933Z,99.53
2018-04-22T20:06:47.314Z,99.53
2018-04-22T20:09:14.708Z,99.64
2018-04-22T20:11:42.096Z,99.75
2018-04-22T20:14:09.492Z,100.00
2018-04-22T20:16:36.886Z,100.00
2018-04-22T20:19:04.278Z,100.00
2018-04-22T20:21:31.667Z,99.94
2018-04-22T20:23:59.067Z,100.00
2018-04-22T20:26:26.457Z,100.00
2018-04-22T20:28:53.844Z,100.00
2018-04-22T20:31:21.235Z,100.00
2018-04-22T20:33:48.659Z,100.00
2018-04-22T20:36:16.050Z,100.00
2018-04-22T20:38:43.440Z,100.00
2018-04-22T20:41:10.834Z,100.00
2018-04-22T20:43:38.411Z,100.00
2018-04-22T20:46:05.794Z,100.00
2018-04-22T20:48:33.191Z,100.00
2018-04-22T20:51:00.583Z,100.00
2018-04-22T20:53:27.971Z,100.00
2018-04-22T20:55:55.363Z,100.00
2018-04-22T20:58:22.750Z,100.00
2018-04-22T21:00:50.142Z,100.00
2018-04-22T21:03:17.530Z,100.00
2018-04-22T21:05:44.932Z,100.00
2018-04-22T21:08:12.319Z,100.00
2018-04-22T21:10:39.751Z,100.00
2018-04-22T21:13:07.148Z,100.00
2018-04-22T21:15:34.531Z,100.00
2018-04-22T21:18:01.927Z,100.00
2018-04-22T21:20:29.311Z,100.00
2018-04-22T21:22:56.706Z,100.00
2018-04-22T21:25:24.091Z,100.00
2018-04-22T21:27:51.819Z,100.00
2018-04-22T21:30:19.206Z,100.00
2018-04-22T21:32:46.594Z,100.00
2018-04-22T21:35:13.987Z,100.00
2018-04-22T21:37:41.368Z,99.97
2018-04-22T21:40:08.767Z,99.74
2018-04-22T21:42:36.146Z,99.46
2018-04-22T21:45:03.812Z,99.17
2018-04-22T21:47:31.202Z,98.96
2018-04-22T21:49:58.595Z,98.99
2018-04-22T21:52:25.982Z,99.15
2018-04-22T21:54:53.363Z,99.46
2018-04-22T21:57:20.751Z,99.64
2018-04-22T21:59:48.139Z,99.29
2018-04-22T22:02:15.527Z,99.21
2018-04-22T22:04:42.910Z,99.37
2018-04-22T22:07:10.304Z,99.65
2018-04-22T22:09:37.683Z,99.82
2018-04-22T22:12:05.071Z,100.00
2018-04-22T22:14:32.467Z,100.00
2018-04-22T22:16:59.855Z,100.00
2018-04-22T22:19:27.245Z,100.00
2018-04-22T22:21:54.631Z,99.91
2018-04-22T22:24:22.031Z,100.00
2018-04-22T22:26:49.415Z,99.89
2018-04-22T22:29:16.810Z,99.71
2018-04-22T22:31:44.194Z,99.38
2018-04-22T22:34:11.583Z,99.33
2018-04-22T22:36:38.968Z,99.22
2018-04-22T22:39:06.357Z,99.27
2018-04-22T22:41:33.743Z,99.30
2018-04-22T22:44:01.126Z,99.25
2018-04-22T22:46:28.507Z,99.27
2018-04-22T22:48:56.066Z,99.19
2018-04-22T22:51:23.459Z,99.14
2018-04-22T22:53:50.843Z,99.40
2018-04-22T22:56:18.237Z,99.41
2018-04-22T22:58:45.614Z,99.29
2018-04-22T23:01:12.999Z,99.28
2018-04-22T23:03:40.396Z,99.05
2018-04-22T23:06:07.789Z,98.74
2018-04-22T23:08:35.175Z,98.06
2018-04-22T23:11:02.562Z,97.76
2018-04-22T23:13:29.967Z,97.50
2018-04-22T23:15:57.346Z,97.51
2018-04-22T23:18:24.743Z,97.54
2018-04-22T23:20:52.127Z,97.72
2018-04-22T23:23:19.515Z,97.97
2018-04-22T23:25:46.906Z,97.06
2018-04-22T23:28:14.291Z,96.93
2018-04-22T23:30:41.679Z,97.34
2018-04-22T23:33:09.058Z,97.16
2018-04-22T23:35:36.455Z,97.04
2018-04-22T23:38:03.835Z,96.95
2018-04-22T23:40:31.219Z,97.04
2018-04-22T23:42:58.611Z,97.29
2018-04-22T23:45:25.991Z,97.25
2018-04-22T23:47:53.386Z,97.67
2018-04-22T23:50:20.771Z,97.66
2018-04-22T23:52:48.160Z,97.61
2018-04-22T23:55:15.539Z,97.88
2018-04-22T23:57:42.939Z,96.29
